createdAt,value
2023-05-13T00:01:50.363Z,1.60
2023-05-13T00:04:16.961Z,1.40
2023-05-13T00:06:43.401Z,1.77
2023-05-13T00:09:10.064Z,1.60
2023-05-13T00:11:36.607Z,1.40
2023-05-13T00:14:03.787Z,1.43
2023-05-13T00:16:30.402Z,1.77
2023-05-13T00:18:57.003Z,1.40
2023-05-13T00:21:23.731Z,1.40
2023-05-13T00:23:50.445Z,1.40
2023-05-13T00:26:16.888Z,1.47
2023-05-13T00:28:46.909Z,1.50
2023-05-13T00:31:13.446Z,1.23
2023-05-13T00:33:39.915Z,1.17
2023-05-13T00:36:07.617Z,1.60
2023-05-13T00:38:34.376Z,1.40
2023-05-13T00:41:03.644Z,1.40
2023-05-13T00:43:30.736Z,1.27
2023-05-13T00:45:58.634Z,1.40
2023-05-13T00:48:25.206Z,1.57
2023-05-13T00:50:51.921Z,1.10
2023-05-13T00:53:18.484Z,1.70
2023-05-13T00:55:45.907Z,1.40
2023-05-13T00:58:12.994Z,1.40
2023-05-13T01:00:51.954Z,1.50
2023-05-13T01:03:35.077Z,1.27
2023-05-13T01:06:40.109Z,1.27
2023-05-13T01:09:30.326Z,1.40
2023-05-13T01:12:01.505Z,1.20
2023-05-13T01:14:34.319Z,1.53
2023-05-13T01:17:14.728Z,1.43
2023-05-13T01:19:49.422Z,1.40
2023-05-13T01:22:16.538Z,1.60
2023-05-13T01:24:43.231Z,1.30
2023-05-13T01:27:10.295Z,1.40
2023-05-13T01:29:37.737Z,1.43
2023-05-13T01:32:05.397Z,1.33
2023-05-13T01:34:33.510Z,1.40
2023-05-13T01:37:00.900Z,1.27
2023-05-13T01:39:28.658Z,1.97
2023-05-13T01:41:58.858Z,1.60
2023-05-13T01:44:25.513Z,1.47
2023-05-13T01:46:53.398Z,1.40
2023-05-13T01:49:20.018Z,1.50
2023-05-13T01:51:46.558Z,1.70
2023-05-13T01:54:13.047Z,1.40
2023-05-13T01:56:45.810Z,1.50
2023-05-13T01:59:12.615Z,1.80
2023-05-13T02:01:40.579Z,1.50
2023-05-13T02:04:07.353Z,1.60
2023-05-13T02:06:33.943Z,1.50
2023-05-13T02:09:00.470Z,1.30
2023-05-13T02:11:27.542Z,1.67
2023-05-13T02:13:56.953Z,1.40
2023-05-13T02:16:23.453Z,1.60
2023-05-13T02:18:50.159Z,1.50
2023-05-13T02:21:16.861Z,1.70
2023-05-13T02:23:43.909Z,1.60
2023-05-13T02:26:10.395Z,1.43
2023-05-13T02:28:36.915Z,1.50
2023-05-13T02:31:03.385Z,1.63
2023-05-13T02:33:29.915Z,1.80
2023-05-13T02:35:56.815Z,1.50
2023-05-13T02:38:23.663Z,1.37
2023-05-13T02:40:50.280Z,1.37
2023-05-13T02:43:16.954Z,1.40
2023-05-13T02:45:54.291Z,1.50
2023-05-13T02:48:21.099Z,1.63
2023-05-13T02:50:47.608Z,1.77
2023-05-13T02:53:14.133Z,1.60
2023-05-13T02:55:46.364Z,1.43
2023-05-13T02:58:12.945Z,1.40
2023-05-13T03:00:39.491Z,1.60
2023-05-13T03:03:06.081Z,1.50
2023-05-13T03:05:32.654Z,1.60
2023-05-13T03:07:59.355Z,1.50
2023-05-13T03:10:25.891Z,1.33
2023-05-13T03:12:52.429Z,1.50
2023-05-13T03:15:19.125Z,1.37
2023-05-13T03:17:45.648Z,1.43
2023-05-13T03:20:12.473Z,1.67
2023-05-13T03:22:39.139Z,1.50
2023-05-13T03:25:07.111Z,1.40
2023-05-13T03:27:40.984Z,1.47
2023-05-13T03:30:09.312Z,1.40
2023-05-13T03:32:43.332Z,1.60
2023-05-13T03:35:10.552Z,1.40
2023-05-13T03:37:37.472Z,1.70
2023-05-13T03:40:05.963Z,1.40
2023-05-13T03:42:33.375Z,1.40
2023-05-13T03:45:02.741Z,1.67
2023-05-13T03:47:30.387Z,1.40
2023-05-13T03:50:00.831Z,1.60
2023-05-13T03:52:29.476Z,1.40
2023-05-13T03:54:55.946Z,1.43
2023-05-13T03:57:22.427Z,1.50
2023-05-13T03:59:48.933Z,1.47
2023-05-13T04:02:15.664Z,1.30
2023-05-13T04:04:42.280Z,1.40
2023-05-13T04:07:08.793Z,1.40
2023-05-13T04:09:35.429Z,1.50
2023-05-13T04:12:03.542Z,1.50
2023-05-13T04:14:30.029Z,1.30
2023-05-13T04:16:56.494Z,1.50
2023-05-13T04:19:23.717Z,1.40
2023-05-13T04:21:50.225Z,1.30
2023-05-13T04:24:16.789Z,1.40
2023-05-13T04:26:43.272Z,1.90
2023-05-13T04:29:09.871Z,1.70
2023-05-13T04:31:36.454Z,1.30
2023-05-13T04:34:03.188Z,1.40
2023-05-13T04:36:29.689Z,1.53
2023-05-13T04:38:56.733Z,1.70
2023-05-13T04:41:23.201Z,1.13
2023-05-13T04:43:49.688Z,1.80
2023-05-13T04:46:16.465Z,1.50
2023-05-13T04:48:43.084Z,1.40
2023-05-13T04:51:10.310Z,1.53
2023-05-13T04:53:37.668Z,1.40
2023-05-13T04:56:06.414Z,1.20
2023-05-13T04:58:32.906Z,1.30
2023-05-13T05:00:59.372Z,1.30
2023-05-13T05:03:25.859Z,1.40
2023-05-13T05:05:53.007Z,1.30
2023-05-13T05:08:20.480Z,1.60
2023-05-13T05:10:49.029Z,1.50
2023-05-13T05:13:16.246Z,1.40
2023-05-13T05:15:43.801Z,1.57
2023-05-13T05:18:11.210Z,1.57
2023-05-13T05:20:39.493Z,1.47
2023-05-13T05:23:10.532Z,1.50
2023-05-13T05:25:37.842Z,1.30
2023-05-13T05:28:05.101Z,1.30
2023-05-13T05:30:39.386Z,1.40
2023-05-13T05:33:10.947Z,1.30
2023-05-13T05:35:39.557Z,1.40
2023-05-13T05:38:08.964Z,1.43
2023-05-13T05:40:41.478Z,1.40
2023-05-13T05:43:09.088Z,1.20
2023-05-13T05:45:36.156Z,1.43
2023-05-13T05:48:04.812Z,1.40
2023-05-13T05:50:31.437Z,1.50
2023-05-13T05:52:59.624Z,1.30
2023-05-13T05:55:31.677Z,1.30
2023-05-13T05:58:03.748Z,1.40
2023-05-13T06:00:31.148Z,1.27
2023-05-13T06:02:57.990Z,1.70
2023-05-13T06:05:25.024Z,1.40
2023-05-13T06:07:51.645Z,1.60
2023-05-13T06:10:18.425Z,1.40
2023-05-13T06:12:45.753Z,1.50
2023-05-13T06:15:12.370Z,1.33
2023-05-13T06:17:39.059Z,1.47
2023-05-13T06:20:07.252Z,1.30
2023-05-13T06:22:33.896Z,1.20
2023-05-13T06:25:00.684Z,1.50
2023-05-13T06:27:27.221Z,1.70
2023-05-13T06:29:53.700Z,2.00
2023-05-13T06:32:20.233Z,1.60
2023-05-13T06:34:48.360Z,1.50
2023-05-13T06:37:15.387Z,1.60
2023-05-13T06:39:41.929Z,1.90
2023-05-13T06:42:08.817Z,1.27
2023-05-13T06:44:43.285Z,1.30
2023-05-13T06:47:15.941Z,1.40
2023-05-13T06:49:43.398Z,1.53
2023-05-13T06:52:10.734Z,1.30
2023-05-13T06:54:37.423Z,1.57
2023-05-13T06:57:05.679Z,1.20
2023-05-13T06:59:32.196Z,1.77
2023-05-13T07:01:58.705Z,1.23
2023-05-13T07:04:25.280Z,1.30
2023-05-13T07:06:51.721Z,1.40
2023-05-13T07:09:18.149Z,1.47
2023-05-13T07:11:44.587Z,1.40
2023-05-13T07:14:11.290Z,1.40
2023-05-13T07:16:37.790Z,1.37
2023-05-13T07:19:04.381Z,1.10
2023-05-13T07:21:30.952Z,1.50
2023-05-13T07:23:57.414Z,1.60
2023-05-13T07:26:24.028Z,1.43
2023-05-13T07:28:50.480Z,1.53
2023-05-13T07:31:17.007Z,1.50
2023-05-13T07:33:43.522Z,1.60
2023-05-13T07:36:09.963Z,1.33
2023-05-13T07:38:36.402Z,1.43
2023-05-13T07:41:02.846Z,1.23
2023-05-13T07:43:29.428Z,1.60
2023-05-13T07:45:55.901Z,1.40
2023-05-13T07:48:24.481Z,1.30
2023-05-13T07:50:51.071Z,1.20
2023-05-13T07:53:19.671Z,1.33
2023-05-13T07:55:46.549Z,1.50
2023-05-13T07:58:13.134Z,1.27
2023-05-13T08:00:39.715Z,1.10
2023-05-13T08:03:06.387Z,1.40
2023-05-13T08:05:32.862Z,1.60
2023-05-13T08:07:59.365Z,1.40
2023-05-13T08:10:25.965Z,1.60
2023-05-13T08:12:57.510Z,1.40
2023-05-13T08:15:24.970Z,1.57
2023-05-13T08:17:53.358Z,1.40
2023-05-13T08:20:20.916Z,1.30
2023-05-13T08:22:47.705Z,1.47
2023-05-13T08:25:15.970Z,1.37
2023-05-13T08:27:42.609Z,1.50
2023-05-13T08:30:09.373Z,1.77
2023-05-13T08:32:35.880Z,1.67
2023-05-13T08:35:02.378Z,1.40
2023-05-13T08:37:28.832Z,1.20
2023-05-13T08:39:56.574Z,1.23
2023-05-13T08:42:23.637Z,1.50
2023-05-13T08:44:52.458Z,1.20
2023-05-13T08:47:37.280Z,1.30
2023-05-13T08:50:04.017Z,1.73
2023-05-13T08:52:31.540Z,1.50
2023-05-13T08:54:59.551Z,1.50
2023-05-13T08:57:26.871Z,1.73
2023-05-13T08:59:53.348Z,1.70
2023-05-13T09:02:19.839Z,1.40
2023-05-13T09:04:50.045Z,1.37
2023-05-13T09:07:17.039Z,1.57
2023-05-13T09:09:44.275Z,1.27
2023-05-13T09:12:10.946Z,1.50
2023-05-13T09:14:38.539Z,1.57
2023-05-13T09:17:05.421Z,1.57
2023-05-13T09:19:31.969Z,1.63
2023-05-13T09:21:58.552Z,1.23
2023-05-13T09:24:25.059Z,1.60
2023-05-13T09:26:51.935Z,1.70
2023-05-13T09:29:26.558Z,1.80
2023-05-13T09:31:55.188Z,1.83
2023-05-13T09:34:39.694Z,1.60
2023-05-13T09:37:08.065Z,1.60
2023-05-13T09:39:42.022Z,1.60
2023-05-13T09:42:16.469Z,1.33
2023-05-13T09:44:44.552Z,1.57
2023-05-13T09:47:15.069Z,1.77
2023-05-13T09:49:42.472Z,1.47
2023-05-13T09:52:11.526Z,1.80
2023-05-13T09:54:39.292Z,1.47
2023-05-13T09:57:06.228Z,1.50
2023-05-13T09:59:35.820Z,1.67
2023-05-13T10:02:06.263Z,1.60
2023-05-13T10:04:33.230Z,1.50
2023-05-13T10:07:03.649Z,1.60
2023-05-13T10:09:36.378Z,1.27
2023-05-13T10:12:06.680Z,1.50
2023-05-13T10:14:33.295Z,1.70
2023-05-13T10:17:00.126Z,1.90
2023-05-13T10:19:27.132Z,1.60
2023-05-13T10:21:54.234Z,1.70
2023-05-13T10:24:22.161Z,1.87
2023-05-13T10:26:52.677Z,1.60
2023-05-13T10:29:19.386Z,1.70
2023-05-13T10:31:47.802Z,1.70
2023-05-13T10:34:14.440Z,1.60
2023-05-13T10:36:59.368Z,1.50
2023-05-13T10:40:00.028Z,1.57
2023-05-13T10:42:43.023Z,1.63
2023-05-13T10:45:10.558Z,1.77
2023-05-13T10:47:38.475Z,1.57
2023-05-13T10:50:07.359Z,1.87
2023-05-13T10:52:49.906Z,1.77
2023-05-13T10:55:20.547Z,1.80
2023-05-13T10:58:13.530Z,1.90
2023-05-13T11:00:44.639Z,1.40
2023-05-13T11:03:11.685Z,1.47
2023-05-13T11:05:40.355Z,1.67
2023-05-13T11:08:06.947Z,1.40
2023-05-13T11:10:33.617Z,1.50
2023-05-13T11:13:24.582Z,1.83
2023-05-13T11:15:55.441Z,1.53
2023-05-13T11:18:31.335Z,1.73
2023-05-13T11:21:05.162Z,1.70
2023-05-13T11:23:37.346Z,1.70
2023-05-13T11:26:12.743Z,1.53
2023-05-13T11:28:56.664Z,1.60
2023-05-13T11:31:24.147Z,1.77
2023-05-13T11:34:10.363Z,1.70
2023-05-13T11:36:43.041Z,1.33
2023-05-13T11:39:16.087Z,1.60
2023-05-13T11:41:46.714Z,1.70
2023-05-13T11:44:15.810Z,1.70
2023-05-13T11:47:02.367Z,1.40
2023-05-13T11:49:38.739Z,1.60
2023-05-13T11:52:08.668Z,1.60
2023-05-13T11:54:51.548Z,1.70
2023-05-13T11:57:18.847Z,1.70
2023-05-13T11:59:54.318Z,1.60
2023-05-13T12:02:25.795Z,1.70
2023-05-13T12:04:53.318Z,1.57
2023-05-13T12:07:21.786Z,1.70
2023-05-13T12:09:49.759Z,1.90
2023-05-13T12:12:17.522Z,1.63
2023-05-13T12:14:46.281Z,1.77
2023-05-13T12:17:14.014Z,1.40
2023-05-13T12:19:41.061Z,1.70
2023-05-13T12:22:08.892Z,1.30
2023-05-13T12:24:35.511Z,1.63
2023-05-13T12:27:08.619Z,1.53
2023-05-13T12:29:43.193Z,1.40
2023-05-13T12:32:11.779Z,1.57
2023-05-13T12:34:39.017Z,1.60
2023-05-13T12:37:12.676Z,1.67
2023-05-13T12:39:43.305Z,1.70
2023-05-13T12:42:17.499Z,1.57
2023-05-13T12:44:45.078Z,1.60
2023-05-13T12:47:13.110Z,1.87
2023-05-13T12:49:56.604Z,1.53
2023-05-13T12:52:23.731Z,1.43
2023-05-13T12:54:50.735Z,1.60
2023-05-13T12:57:18.213Z,1.60
2023-05-13T12:59:47.469Z,1.63
2023-05-13T13:02:14.058Z,1.60
2023-05-13T13:04:40.713Z,1.53
2023-05-13T13:07:11.883Z,1.80
2023-05-13T13:09:38.420Z,1.80
2023-05-13T13:12:05.178Z,1.70
2023-05-13T13:14:31.882Z,1.50
2023-05-13T13:16:58.417Z,1.77
2023-05-13T13:19:25.073Z,1.77
2023-05-13T13:21:51.625Z,1.80
2023-05-13T13:24:18.755Z,1.60
2023-05-13T13:26:45.548Z,1.80
2023-05-13T13:29:12.111Z,1.80
2023-05-13T13:31:38.636Z,1.40
2023-05-13T13:34:05.912Z,1.60
2023-05-13T13:36:32.826Z,1.63
2023-05-13T13:38:59.298Z,1.60
2023-05-13T13:41:26.250Z,1.37
2023-05-13T13:43:52.727Z,1.40
2023-05-13T13:46:19.411Z,1.80
2023-05-13T13:48:45.914Z,1.70
2023-05-13T13:51:12.334Z,1.63
2023-05-13T13:53:38.781Z,1.60
2023-05-13T13:56:05.535Z,1.57
2023-05-13T13:58:32.025Z,1.60
2023-05-13T14:00:58.540Z,1.80
2023-05-13T14:03:25.154Z,1.90
2023-05-13T14:05:51.932Z,1.40
2023-05-13T14:08:18.494Z,1.63
2023-05-13T14:10:44.908Z,1.70
2023-05-13T14:13:11.386Z,1.83
2023-05-13T14:15:39.226Z,1.40
2023-05-13T14:18:09.363Z,1.40
2023-05-13T14:20:36.258Z,1.90
2023-05-13T14:23:04.515Z,1.50
2023-05-13T14:25:31.991Z,1.63
2023-05-13T14:27:58.441Z,1.37
2023-05-13T14:30:27.470Z,1.43
2023-05-13T14:32:53.973Z,1.50
2023-05-13T14:35:20.507Z,1.50
2023-05-13T14:37:47.084Z,1.50
2023-05-13T14:40:13.643Z,1.47
2023-05-13T14:42:40.576Z,1.47
2023-05-13T14:45:07.664Z,1.50
2023-05-13T14:47:34.555Z,1.67
2023-05-13T14:50:01.163Z,1.60
2023-05-13T14:52:27.685Z,1.60
2023-05-13T14:54:54.216Z,1.50
2023-05-13T14:57:21.187Z,1.80
2023-05-13T14:59:47.761Z,1.33
2023-05-13T15:02:17.213Z,1.50
2023-05-13T15:04:44.000Z,1.50
2023-05-13T15:07:10.718Z,1.43
2023-05-13T15:09:37.313Z,1.40
2023-05-13T15:12:04.191Z,1.60
2023-05-13T15:14:30.728Z,1.30
2023-05-13T15:16:57.350Z,1.47
2023-05-13T15:19:23.874Z,1.40
2023-05-13T15:21:50.753Z,1.60
2023-05-13T15:24:17.266Z,1.73
2023-05-13T15:26:43.737Z,1.57
2023-05-13T15:29:10.210Z,1.93
2023-05-13T15:31:36.642Z,1.50
2023-05-13T15:34:03.266Z,1.50
2023-05-13T15:36:29.726Z,1.97
2023-05-13T15:38:56.308Z,3.10
2023-05-13T15:41:22.734Z,7.47
2023-05-13T15:43:49.215Z,11.53
2023-05-13T15:46:16.161Z,8.90
2023-05-13T15:48:42.676Z,6.77
2023-05-13T15:51:09.094Z,9.07
2023-05-13T15:53:35.586Z,10.07
2023-05-13T15:56:02.044Z,9.30
2023-05-13T15:58:28.489Z,9.40
2023-05-13T16:00:54.910Z,10.90
2023-05-13T16:03:22.108Z,11.17
2023-05-13T16:05:48.572Z,11.57
2023-05-13T16:08:15.126Z,12.10
2023-05-13T16:10:41.960Z,10.67
2023-05-13T16:13:08.510Z,9.47
2023-05-13T16:15:35.134Z,8.60
2023-05-13T16:18:01.770Z,9.23
2023-05-13T16:20:28.314Z,8.07
2023-05-13T16:22:54.826Z,7.57
2023-05-13T16:25:23.597Z,7.33
2023-05-13T16:27:51.343Z,7.70
2023-05-13T16:30:17.780Z,6.77
2023-05-13T16:32:44.431Z,6.30
2023-05-13T16:35:11.792Z,5.47
2023-05-13T16:37:38.330Z,5.87
2023-05-13T16:40:05.473Z,6.27
2023-05-13T16:42:31.924Z,5.77
2023-05-13T16:44:58.395Z,5.57
2023-05-13T16:47:24.978Z,4.60
2023-05-13T16:49:51.490Z,5.20
2023-05-13T16:52:18.083Z,5.47
2023-05-13T16:54:44.692Z,4.80
2023-05-13T16:57:11.377Z,4.27
2023-05-13T16:59:37.860Z,4.23
2023-05-13T17:02:06.068Z,4.73
2023-05-13T17:04:32.614Z,3.93
2023-05-13T17:06:59.749Z,3.70
2023-05-13T17:09:26.463Z,3.93
2023-05-13T17:11:54.458Z,3.80
2023-05-13T17:14:21.595Z,3.97
2023-05-13T17:16:48.491Z,3.17
2023-05-13T17:19:15.021Z,3.60
2023-05-13T17:21:41.799Z,3.30
2023-05-13T17:24:08.350Z,3.03
2023-05-13T17:26:36.229Z,2.87
2023-05-13T17:29:04.879Z,2.70
2023-05-13T17:31:31.424Z,2.33
2023-05-13T17:33:57.902Z,2.70
2023-05-13T17:36:24.459Z,2.40
2023-05-13T17:38:51.265Z,2.50
2023-05-13T17:41:17.770Z,2.47
2023-05-13T17:43:44.295Z,2.40
2023-05-13T17:46:11.220Z,2.53
2023-05-13T17:48:37.797Z,2.20
2023-05-13T17:51:04.331Z,2.37
2023-05-13T17:53:32.798Z,2.50
2023-05-13T17:56:01.018Z,2.60
2023-05-13T17:58:27.481Z,2.20
2023-05-13T18:00:54.230Z,2.40
2023-05-13T18:03:21.701Z,2.13
2023-05-13T18:05:48.543Z,2.13
2023-05-13T18:08:15.136Z,2.17
2023-05-13T18:10:41.595Z,1.93
2023-05-13T18:13:08.019Z,2.10
2023-05-13T18:15:34.680Z,2.50
2023-05-13T18:18:03.322Z,2.07
2023-05-13T18:20:31.274Z,2.33
2023-05-13T18:22:57.741Z,2.43
2023-05-13T18:25:24.249Z,2.70
2023-05-13T18:27:50.931Z,2.10
2023-05-13T18:30:18.409Z,2.00
2023-05-13T18:32:44.946Z,1.97
2023-05-13T18:35:11.561Z,2.03
2023-05-13T18:37:38.096Z,2.00
2023-05-13T18:40:04.997Z,2.13
2023-05-13T18:42:31.510Z,2.40
2023-05-13T18:44:57.995Z,2.27
2023-05-13T18:47:24.523Z,2.07
2023-05-13T18:49:51.049Z,1.90
2023-05-13T18:52:17.546Z,1.97
2023-05-13T18:54:43.991Z,2.07
2023-05-13T18:57:10.998Z,2.40
2023-05-13T18:59:37.480Z,2.27
2023-05-13T19:02:04.218Z,1.93
2023-05-13T19:04:31.048Z,2.00
2023-05-13T19:06:57.596Z,2.10
2023-05-13T19:09:24.084Z,2.20
2023-05-13T19:11:50.620Z,2.10
2023-05-13T19:14:17.157Z,1.93
2023-05-13T19:16:43.666Z,1.67
2023-05-13T19:19:10.283Z,1.97
2023-05-13T19:21:36.766Z,1.80
2023-05-13T19:24:03.433Z,1.80
2023-05-13T19:26:30.801Z,2.00
2023-05-13T19:28:57.341Z,2.00
2023-05-13T19:31:24.573Z,2.03
2023-05-13T19:33:51.350Z,1.87
2023-05-13T19:36:17.848Z,2.13
2023-05-13T19:38:44.369Z,2.07
2023-05-13T19:41:10.873Z,2.00
2023-05-13T19:43:37.295Z,1.70
2023-05-13T19:46:03.781Z,1.77
2023-05-13T19:48:30.654Z,1.67
2023-05-13T19:50:58.246Z,2.00
2023-05-13T19:53:24.892Z,2.03
2023-05-13T19:55:51.511Z,1.90
2023-05-13T19:58:18.144Z,1.70
2023-05-13T20:00:45.034Z,1.47
2023-05-13T20:03:11.646Z,1.73
2023-05-13T20:05:39.909Z,1.73
2023-05-13T20:08:06.691Z,1.73
2023-05-13T20:10:35.151Z,2.23
2023-05-13T20:13:03.447Z,1.90
2023-05-13T20:15:30.903Z,1.60
2023-05-13T20:17:57.620Z,1.73
2023-05-13T20:20:24.468Z,1.77
2023-05-13T20:22:51.190Z,1.60
2023-05-13T20:25:17.788Z,1.53
2023-05-13T20:27:44.255Z,1.60
2023-05-13T20:30:11.501Z,1.97
2023-05-13T20:32:37.988Z,1.73
2023-05-13T20:35:04.987Z,1.80
2023-05-13T20:37:31.554Z,1.57
2023-05-13T20:39:58.126Z,1.53
2023-05-13T20:42:25.329Z,2.00
2023-05-13T20:44:52.117Z,1.70
2023-05-13T20:47:19.889Z,1.70
2023-05-13T20:49:46.503Z,1.90
2023-05-13T20:52:13.011Z,1.70
2023-05-13T20:54:39.533Z,1.80
2023-05-13T20:57:06.041Z,1.70
2023-05-13T20:59:32.537Z,1.37
2023-05-13T21:01:59.089Z,1.90
2023-05-13T21:04:25.647Z,1.60
2023-05-13T21:06:52.949Z,1.60
2023-05-13T21:09:19.437Z,1.90
2023-05-13T21:11:45.977Z,1.63
2023-05-13T21:14:12.552Z,1.47
2023-05-13T21:16:39.022Z,1.90
2023-05-13T21:19:05.744Z,1.70
2023-05-13T21:21:32.254Z,1.47
2023-05-13T21:23:58.779Z,1.60
2023-05-13T21:26:25.785Z,1.53
2023-05-13T21:28:52.219Z,1.63
2023-05-13T21:31:18.784Z,1.80
2023-05-13T21:33:45.381Z,1.60
2023-05-13T21:36:11.790Z,1.50
2023-05-13T21:38:38.245Z,1.70
2023-05-13T21:41:04.754Z,1.40
2023-05-13T21:43:31.216Z,1.53
2023-05-13T21:45:57.678Z,1.67
2023-05-13T21:48:24.240Z,1.60
2023-05-13T21:50:50.950Z,1.73
2023-05-13T21:53:17.446Z,1.57
2023-05-13T21:55:44.401Z,1.70
2023-05-13T21:58:10.924Z,1.57
2023-05-13T22:00:37.464Z,1.50
2023-05-13T22:03:05.832Z,1.43
2023-05-13T22:05:32.389Z,1.60
2023-05-13T22:08:00.104Z,1.33
2023-05-13T22:10:26.644Z,1.77
2023-05-13T22:12:53.472Z,1.50
2023-05-13T22:15:19.935Z,1.80
2023-05-13T22:17:47.772Z,1.47
2023-05-13T22:20:15.604Z,1.50
2023-05-13T22:22:42.097Z,1.30
2023-05-13T22:25:08.877Z,1.47
2023-05-13T22:27:35.527Z,1.50
2023-05-13T22:30:02.285Z,1.60
2023-05-13T22:32:28.884Z,1.60
2023-05-13T22:34:55.376Z,1.40
2023-05-13T22:37:21.834Z,1.63
2023-05-13T22:39:48.284Z,1.70
2023-05-13T22:42:14.755Z,1.40
2023-05-13T22:44:41.443Z,1.60
2023-05-13T22:47:08.619Z,1.80
2023-05-13T22:49:35.222Z,1.70
2023-05-13T22:52:01.871Z,1.50
2023-05-13T22:54:28.388Z,1.50
2023-05-13T22:56:54.845Z,1.70
2023-05-13T22:59:21.415Z,1.50
2023-05-13T23:01:47.984Z,1.50
2023-05-13T23:04:14.649Z,1.53
2023-05-13T23:06:41.271Z,1.37
2023-05-13T23:09:07.801Z,1.60
2023-05-13T23:11:36.444Z,1.50
2023-05-13T23:14:02.914Z,1.67
2023-05-13T23:16:29.405Z,1.60
2023-05-13T23:18:55.968Z,1.70
2023-05-13T23:21:22.387Z,1.83
2023-05-13T23:23:50.107Z,1.50
2023-05-13T23:26:16.597Z,1.60
2023-05-13T23:28:43.118Z,1.50
2023-05-13T23:31:09.652Z,1.80
2023-05-13T23:33:36.173Z,1.70
2023-05-13T23:36:02.656Z,1.80
2023-05-13T23:38:29.115Z,1.70
2023-05-13T23:40:55.580Z,1.47
2023-05-13T23:43:22.069Z,1.50
2023-05-13T23:45:48.514Z,1.53
2023-05-13T23:48:15.002Z,1.53
2023-05-13T23:50:42.055Z,1.50
2023-05-13T23:53:08.643Z,1.60
2023-05-13T23:55:35.707Z,1.50
2023-05-13T23:58:02.392Z,1.80
